sensor_id;sensor_type;location;lat;lon;timestamp;pressure;altitude;pressure_sealevel;temperature;humidity
11114;BME280;5610;52.154;9.198;2023-02-13T00:00:49;102963.81;;;8.99;100.00
11114;BME280;5610;52.154;9.198;2023-02-13T00:03:36;102962.94;;;8.98;100.00
11114;BME280;5610;52.154;9.198;2023-02-13T00:06:21;102960.28;;;8.98;100.00
11114;BME280;5610;52.154;9.198;2023-02-13T00:09:07;102955.81;;;9.00;100.00
11114;BME280;5610;52.154;9.198;2023-02-13T00:11:54;102952.25;;;9.01;100.00
11114;BME280;5610;52.154;9.198;2023-02-13T00:14:39;102956.69;;;9.01;100.00
11114;BME280;5610;52.154;9.198;2023-02-13T00:17:24;102962.03;;;8.99;100.00
11114;BME280;5610;52.154;9.198;2023-02-13T00:20:12;102959.44;;;8.96;100.00
11114;BME280;5610;52.154;9.198;2023-02-13T00:22:57;102964.75;;;8.98;100.00
11114;BME280;5610;52.154;9.198;2023-02-13T00:25:42;102967.38;;;8.99;100.00
11114;BME280;5610;52.154;9.198;2023-02-13T00:28:28;102962.13;;;8.96;100.00
11114;BME280;5610;52.154;9.198;2023-02-13T00:31:16;102963.88;;;8.97;100.00
11114;BME280;5610;52.154;9.198;2023-02-13T00:34:02;102966.53;;;8.97;100.00
11114;BME280;5610;52.154;9.198;2023-02-13T00:36:48;102961.25;;;8.96;100.00
11114;BME280;5610;52.154;9.198;2023-02-13T00:39:34;102955.88;;;8.97;100.00
11114;BME280;5610;52.154;9.198;2023-02-13T00:42:19;102955.88;;;8.97;100.00
11114;BME280;5610;52.154;9.198;2023-02-13T00:45:08;102962.06;;;8.98;100.00
11114;BME280;5610;52.154;9.198;2023-02-13T00:47:53;102953.22;;;8.97;100.00
11114;BME280;5610;52.154;9.198;2023-02-13T00:50:39;102944.38;;;8.97;100.00
11114;BME280;5610;52.154;9.198;2023-02-13T00:53:26;102950.56;;;8.97;100.00
11114;BME280;5610;52.154;9.198;2023-02-13T00:56:12;102946.16;;;8.96;100.00
11114;BME280;5610;52.154;9.198;2023-02-13T00:58:59;102945.28;;;8.94;100.00
11114;BME280;5610;52.154;9.198;2023-02-13T01:01:45;102947.94;;;8.96;100.00
11114;BME280;5610;52.154;9.198;2023-02-13T01:04:31;102947.91;;;8.97;100.00
11114;BME280;5610;52.154;9.198;2023-02-13T01:07:17;102951.47;;;8.96;100.00
11114;BME280;5610;52.154;9.198;2023-02-13T01:10:04;102946.16;;;8.96;100.00
11114;BME280;5610;52.154;9.198;2023-02-13T01:12:50;102948.81;;;8.96;100.00
11114;BME280;5610;52.154;9.198;2023-02-13T01:15:35;102955.00;;;8.97;100.00
11114;BME280;5610;52.154;9.198;2023-02-13T01:18:21;102950.56;;;8.97;100.00
11114;BME280;5610;52.154;9.198;2023-02-13T01:21:07;102945.28;;;8.96;100.00
11114;BME280;5610;52.154;9.198;2023-02-13T01:23:53;102948.81;;;8.96;100.00
11114;BME280;5610;52.154;9.198;2023-02-13T01:26:39;102948.81;;;8.96;100.00
11114;BME280;5610;52.154;9.198;2023-02-13T01:29:25;102941.75;;;8.94;100.00
11114;BME280;5610;52.154;9.198;2023-02-13T01:32:10;102934.69;;;8.93;100.00
11114;BME280;5610;52.154;9.198;2023-02-13T01:34:56;102938.22;;;8.93;100.00
11114;BME280;5610;52.154;9.198;2023-02-13T01:37:41;102932.03;;;8.93;100.00
11114;BME280;5610;52.154;9.198;2023-02-13T01:40:27;102926.78;;;8.90;100.00
11114;BME280;5610;52.154;9.198;2023-02-13T01:43:14;102929.47;;;8.88;100.00
11114;BME280;5610;52.154;9.198;2023-02-13T01:46:00;102909.97;;;8.86;100.00
11114;BME280;5610;52.154;9.198;2023-02-13T01:48:48;102924.16;;;8.88;100.00
11114;BME280;5610;52.154;9.198;2023-02-13T01:51:35;102921.41;;;8.91;100.00
11114;BME280;5610;52.154;9.198;2023-02-13T01:54:25;102923.28;;;8.86;100.00
11114;BME280;5610;52.154;9.198;2023-02-13T01:57:18;102926.81;;;8.88;100.00
11114;BME280;5610;52.154;9.198;2023-02-13T02:00:11;102917.13;;;8.84;100.00
11114;BME280;5610;52.154;9.198;2023-02-13T02:03:08;102917.09;;;8.86;100.00
11114;BME280;5610;52.154;9.198;2023-02-13T02:05:59;102925.09;;;8.84;100.00
11114;BME280;5610;52.154;9.198;2023-02-13T02:08:46;102918.88;;;8.85;100.00
11114;BME280;5610;52.154;9.198;2023-02-13T02:11:41;102914.53;;;8.81;100.00
11114;BME280;5610;52.154;9.198;2023-02-13T02:14:29;102915.34;;;8.85;100.00
11114;BME280;5610;52.154;9.198;2023-02-13T02:17:16;102912.78;;;8.78;100.00
11114;BME280;5610;52.154;9.198;2023-02-13T02:20:12;102911.06;;;8.76;100.00
11114;BME280;5610;52.154;9.198;2023-02-13T02:26:49;102905.69;;;8.79;100.00
11114;BME280;5610;52.154;9.198;2023-02-13T02:30:02;102898.63;;;8.78;100.00
11114;BME280;5610;52.154;9.198;2023-02-13T02:33:03;102894.13;;;8.80;100.00
11114;BME280;5610;52.154;9.198;2023-02-13T02:35:59;102893.25;;;8.81;100.00
11114;BME280;5610;52.154;9.198;2023-02-13T02:39:01;102894.97;;;8.84;100.00
11114;BME280;5610;52.154;9.198;2023-02-13T02:41:56;102894.13;;;8.82;100.00
11114;BME280;5610;52.154;9.198;2023-02-13T02:44:50;102902.13;;;8.82;100.00
11114;BME280;5610;52.154;9.198;2023-02-13T02:47:45;102897.00;;;8.69;100.00
11114;BME280;5610;52.154;9.198;2023-02-13T02:51:02;102890.94;;;8.60;100.00
11114;BME280;5610;52.154;9.198;2023-02-13T02:53:59;102882.03;;;8.64;100.00
11114;BME280;5610;52.154;9.198;2023-02-13T02:57:11;102885.56;;;8.64;100.00
11114;BME280;5610;52.154;9.198;2023-02-13T02:59:59;102889.03;;;8.69;100.00
11114;BME280;5610;52.154;9.198;2023-02-13T03:03:19;102889.19;;;8.60;100.00
11114;BME280;5610;52.154;9.198;2023-02-13T03:06:28;102882.88;;;8.66;100.00
11114;BME280;5610;52.154;9.198;2023-02-13T03:09:19;102877.50;;;8.70;100.00
11114;BME280;5610;52.154;9.198;2023-02-13T03:12:28;102886.31;;;8.74;100.00
11114;BME280;5610;52.154;9.198;2023-02-13T03:15:34;102887.97;;;8.78;100.00
11114;BME280;5610;52.154;9.198;2023-02-13T03:18:43;102888.19;;;8.67;100.00
11114;BME280;5610;52.154;9.198;2023-02-13T03:21:54;102885.50;;;8.69;100.00
11114;BME280;5610;52.154;9.198;2023-02-13T03:25:04;102875.75;;;8.69;100.00
11114;BME280;5610;52.154;9.198;2023-02-13T03:27:56;102878.19;;;8.82;100.00
11114;BME280;5610;52.154;9.198;2023-02-13T03:31:16;102881.91;;;8.71;100.00
11114;BME280;5610;52.154;9.198;2023-02-13T03:34:05;102880.06;;;8.75;100.00
11114;BME280;5610;52.154;9.198;2023-02-13T03:36:56;102873.81;;;8.77;100.00
11114;BME280;5610;52.154;9.198;2023-02-13T03:40:04;102881.75;;;8.79;100.00
11114;BME280;5610;52.154;9.198;2023-02-13T03:42:55;102877.31;;;8.81;100.00
11114;BME280;5610;52.154;9.198;2023-02-13T03:45:47;102887.03;;;8.82;100.00
11114;BME280;5610;52.154;9.198;2023-02-13T03:48:40;102886.94;;;8.88;100.00
11114;BME280;5610;52.154;9.198;2023-02-13T03:51:49;102894.00;;;8.89;100.00
11114;BME280;5610;52.154;9.198;2023-02-13T03:54:42;102889.69;;;8.80;100.00
11114;BME280;5610;52.154;9.198;2023-02-13T03:57:47;102881.69;;;8.84;100.00
11114;BME280;5610;52.154;9.198;2023-02-13T04:00:55;102890.56;;;8.83;100.00
11114;BME280;5610;52.154;9.198;2023-02-13T04:03:47;102887.06;;;8.79;100.00
11114;BME280;5610;52.154;9.198;2023-02-13T04:06:40;102884.28;;;8.87;100.00
11114;BME280;5610;52.154;9.198;2023-02-13T04:09:28;102888.81;;;8.80;100.00
11114;BME280;5610;52.154;9.198;2023-02-13T04:12:19;102880.84;;;8.80;100.00
11114;BME280;5610;52.154;9.198;2023-02-13T04:15:08;102886.88;;;8.90;100.00
11114;BME280;5610;52.154;9.198;2023-02-13T04:18:02;102888.63;;;8.91;100.00
11114;BME280;5610;52.154;9.198;2023-02-13T04:20:49;102894.97;;;8.84;100.00
11114;BME280;5610;52.154;9.198;2023-02-13T04:23:35;102896.78;;;8.82;100.00
11114;BME280;5610;52.154;9.198;2023-02-13T04:26:21;102895.81;;;8.86;100.00
11114;BME280;5610;52.154;9.198;2023-02-13T04:29:08;102892.09;;;8.94;100.00
11114;BME280;5610;52.154;9.198;2023-02-13T04:31:54;102895.75;;;8.90;100.00
11114;BME280;5610;52.154;9.198;2023-02-13T04:34:39;102887.88;;;8.84;100.00
11114;BME280;5610;52.154;9.198;2023-02-13T04:37:25;102891.25;;;8.92;100.00
11114;BME280;5610;52.154;9.198;2023-02-13T04:40:11;102885.16;;;8.87;100.00
11114;BME280;5610;52.154;9.198;2023-02-13T04:42:56;102885.97;;;8.91;100.00
11114;BME280;5610;52.154;9.198;2023-02-13T04:45:46;102875.41;;;8.86;100.00
11114;BME280;5610;52.154;9.198;2023-02-13T04:48:32;102876.44;;;8.79;100.00
11114;BME280;5610;52.154;9.198;2023-02-13T04:51:17;102879.09;;;8.79;100.00
11114;BME280;5610;52.154;9.198;2023-02-13T04:54:03;102873.75;;;8.82;100.00
11114;BME280;5610;52.154;9.198;2023-02-13T04:56:48;102874.59;;;8.84;100.00
11114;BME280;5610;52.154;9.198;2023-02-13T04:59:33;102873.75;;;8.82;100.00
11114;BME280;5610;52.154;9.198;2023-02-13T05:02:20;102872.75;;;8.86;100.00
11114;BME280;5610;52.154;9.198;2023-02-13T05:05:05;102874.66;;;8.81;100.00
11114;BME280;5610;52.154;9.198;2023-02-13T05:07:51;102873.06;;;8.71;100.00
11114;BME280;5610;52.154;9.198;2023-02-13T05:10:36;102873.81;;;8.77;100.00
11114;BME280;5610;52.154;9.198;2023-02-13T05:13:22;102875.78;;;8.66;100.00
11114;BME280;5610;52.154;9.198;2023-02-13T05:16:07;102883.69;;;8.71;100.00
11114;BME280;5610;52.154;9.198;2023-02-13T05:18:54;102881.00;;;8.72;100.00
11114;BME280;5610;52.154;9.198;2023-02-13T05:21:40;102883.53;;;8.78;100.00
11114;BME280;5610;52.154;9.198;2023-02-13T05:24:43;102884.38;;;8.80;100.00
11114;BME280;5610;52.154;9.198;2023-02-13T05:27:28;102883.53;;;8.78;100.00
11114;BME280;5610;52.154;9.198;2023-02-13T05:30:14;102890.84;;;8.66;100.00
11114;BME280;5610;52.154;9.198;2023-02-13T05:32:59;102877.53;;;8.69;100.00
11114;BME280;5610;52.154;9.198;2023-02-13T05:35:46;102889.94;;;8.67;100.00
11114;BME280;5610;52.154;9.198;2023-02-13T05:38:31;102888.97;;;8.72;100.00
11114;BME280;5610;52.154;9.198;2023-02-13T05:41:17;102891.75;;;8.65;100.00
11114;BME280;5610;52.154;9.198;2023-02-13T05:44:02;102893.41;;;8.72;100.00
11114;BME280;5610;52.154;9.198;2023-02-13T05:46:47;102892.59;;;8.67;100.00
11114;BME280;5610;52.154;9.198;2023-02-13T05:49:33;102898.81;;;8.66;100.00
11114;BME280;5610;52.154;9.198;2023-02-13T05:52:20;102903.22;;;8.68;100.00
11114;BME280;5610;52.154;9.198;2023-02-13T05:55:06;102906.69;;;8.72;100.00
11114;BME280;5610;52.154;9.198;2023-02-13T05:57:55;102913.16;;;8.57;100.00
11114;BME280;5610;52.154;9.198;2023-02-13T06:00:40;102911.53;;;8.48;100.00
11114;BME280;5610;52.154;9.198;2023-02-13T06:03:27;102910.69;;;8.46;100.00
11114;BME280;5610;52.154;9.198;2023-02-13T06:06:12;102909.09;;;8.33;100.00
11114;BME280;5610;52.154;9.198;2023-02-13T06:08:59;102910.06;;;8.27;100.00
11114;BME280;5610;52.154;9.198;2023-02-13T06:11:44;102913.38;;;8.43;100.00
11114;BME280;5610;52.154;9.198;2023-02-13T06:14:30;102907.06;;;8.50;100.00
11114;BME280;5610;52.154;9.198;2023-02-13T06:17:15;102922.06;;;8.55;100.00
11114;BME280;5610;52.154;9.198;2023-02-13T06:20:01;102915.78;;;8.60;100.00
11114;BME280;5610;52.154;9.198;2023-02-13T06:22:47;102914.81;;;8.64;100.00
11114;BME280;5610;52.154;9.198;2023-02-13T06:25:34;102918.69;;;8.43;100.00
11114;BME280;5610;52.154;9.198;2023-02-13T06:28:20;102919.53;;;8.45;100.00
11114;BME280;5610;52.154;9.198;2023-02-13T06:31:05;102916.88;;;8.45;100.00
11114;BME280;5610;52.154;9.198;2023-02-13T06:33:50;102922.22;;;8.44;100.00
11114;BME280;5610;52.154;9.198;2023-02-13T06:36:36;102924.78;;;8.50;100.00
11114;BME280;5610;52.154;9.198;2023-02-13T06:39:21;102924.81;;;8.48;100.00
11114;BME280;5610;52.154;9.198;2023-02-13T06:42:08;102928.31;;;8.50;100.00
11114;BME280;5610;52.154;9.198;2023-02-13T06:44:53;102929.22;;;8.49;100.00
11114;BME280;5610;52.154;9.198;2023-02-13T06:47:40;102935.47;;;8.48;100.00
11114;BME280;5610;52.154;9.198;2023-02-13T06:50:26;102925.59;;;8.55;100.00
11114;BME280;5610;52.154;9.198;2023-02-13T06:53:11;102937.03;;;8.60;100.00
11114;BME280;5610;52.154;9.198;2023-02-13T06:55:57;102940.53;;;8.62;100.00
11114;BME280;5610;52.154;9.198;2023-02-13T06:58:43;102932.56;;;8.62;100.00
11114;BME280;5610;52.154;9.198;2023-02-13T07:01:29;102937.00;;;8.62;100.00
11114;BME280;5610;52.154;9.198;2023-02-13T07:04:15;102950.22;;;8.65;100.00
11114;BME280;5610;52.154;9.198;2023-02-13T07:07:01;102949.31;;;8.66;100.00
11114;BME280;5610;52.154;9.198;2023-02-13T07:09:46;102949.22;;;8.72;100.00
11114;BME280;5610;52.154;9.198;2023-02-13T07:12:32;102952.75;;;8.74;100.00
11114;BME280;5610;52.154;9.198;2023-02-13T07:15:19;102957.09;;;8.78;100.00
11114;BME280;5610;52.154;9.198;2023-02-13T07:18:05;102954.38;;;8.83;100.00
11114;BME280;5610;52.154;9.198;2023-02-13T07:20:50;102962.28;;;8.86;100.00
11114;BME280;5610;52.154;9.198;2023-02-13T07:23:35;102956.84;;;8.93;100.00
11114;BME280;5610;52.154;9.198;2023-02-13T07:26:21;102953.34;;;8.91;100.00
11114;BME280;5610;52.154;9.198;2023-02-13T07:29:06;102948.84;;;8.93;100.00
11114;BME280;5610;52.154;9.198;2023-02-13T07:31:53;102955.03;;;8.95;100.00
11114;BME280;5610;52.154;9.198;2023-02-13T07:34:38;102948.78;;;8.98;100.00
11114;BME280;5610;52.154;9.198;2023-02-13T07:37:24;102951.38;;;9.02;100.00
11114;BME280;5610;52.154;9.198;2023-02-13T07:40:11;102947.72;;;9.06;100.00
11114;BME280;5610;52.154;9.198;2023-02-13T07:42:59;102945.94;;;9.07;100.00
11114;BME280;5610;52.154;9.198;2023-02-13T07:45:44;102942.53;;;9.00;100.00
11114;BME280;5610;52.154;9.198;2023-02-13T07:48:31;102960.38;;;8.94;100.00
11114;BME280;5610;52.154;9.198;2023-02-13T07:51:16;102960.50;;;8.86;100.00
11114;BME280;5610;52.154;9.198;2023-02-13T07:54:02;102959.56;;;8.90;100.00
11114;BME280;5610;52.154;9.198;2023-02-13T07:56:47;102962.06;;;8.98;100.00
11114;BME280;5610;52.154;9.198;2023-02-13T07:59:32;102962.16;;;8.93;100.00
11114;BME280;5610;52.154;9.198;2023-02-13T08:02:18;102956.94;;;8.89;100.00
11114;BME280;5610;52.154;9.198;2023-02-13T08:05:05;102961.97;;;9.04;100.00
11114;BME280;5610;52.154;9.198;2023-02-13T08:07:51;102963.69;;;9.06;100.00
11114;BME280;5610;52.154;9.198;2023-02-13T08:10:36;102969.84;;;9.10;100.00
11114;BME280;5610;52.154;9.198;2023-02-13T08:13:39;102960.88;;;9.14;100.00
11114;BME280;5610;52.154;9.198;2023-02-13T08:16:25;102962.63;;;9.15;100.00
11114;BME280;5610;52.154;9.198;2023-02-13T08:19:10;102966.41;;;9.03;100.00
11114;BME280;5610;52.154;9.198;2023-02-13T08:21:57;102968.94;;;9.11;100.00
11114;BME280;5610;52.154;9.198;2023-02-13T08:24:43;102972.63;;;9.04;100.00
11114;BME280;5610;52.154;9.198;2023-02-13T08:27:28;102975.31;;;9.02;100.00
11114;BME280;5610;52.154;9.198;2023-02-13T08:30:14;102968.31;;;8.97;100.00
11114;BME280;5610;52.154;9.198;2023-02-13T08:32:59;102969.41;;;8.84;100.00
11114;BME280;5610;52.154;9.198;2023-02-13T08:35:45;102969.75;;;8.64;100.00
11114;BME280;5610;52.154;9.198;2023-02-13T08:38:31;102966.34;;;8.56;100.00
11114;BME280;5610;52.154;9.198;2023-02-13T08:41:17;102966.16;;;8.68;100.00
11114;BME280;5610;52.154;9.198;2023-02-13T08:44:05;102962.47;;;8.73;100.00
11114;BME280;5610;52.154;9.198;2023-02-13T08:46:50;102972.16;;;8.79;100.00
11114;BME280;5610;52.154;9.198;2023-02-13T08:49:36;102980.13;;;8.79;100.00
11114;BME280;5610;52.154;9.198;2023-02-13T08:52:21;102978.44;;;8.73;100.00
11114;BME280;5610;52.154;9.198;2023-02-13T08:55:08;102974.25;;;8.60;100.00
11114;BME280;5610;52.154;9.198;2023-02-13T08:57:53;102967.00;;;8.70;100.00
11114;BME280;5610;52.154;9.198;2023-02-13T09:00:38;102980.09;;;8.80;100.00
11114;BME280;5610;52.154;9.198;2023-02-13T09:03:23;102973.78;;;8.86;100.00
11114;BME280;5610;52.154;9.198;2023-02-13T09:06:09;102975.84;;;8.70;100.00
11114;BME280;5610;52.154;9.198;2023-02-13T09:08:54;102974.91;;;8.73;100.00
11114;BME280;5610;52.154;9.198;2023-02-13T09:11:41;102970.47;;;8.75;100.00
11114;BME280;5610;52.154;9.198;2023-02-13T09:14:26;102971.09;;;8.88;100.00
11114;BME280;5610;52.154;9.198;2023-02-13T09:17:11;102980.66;;;8.99;100.00
11114;BME280;5610;52.154;9.198;2023-02-13T09:19:57;102972.47;;;9.12;100.00
11114;BME280;5610;52.154;9.198;2023-02-13T09:22:43;102974.91;;;9.22;100.00
11114;BME280;5610;52.154;9.198;2023-02-13T09:25:28;102972.16;;;9.28;100.00
11114;BME280;5610;52.154;9.198;2023-02-13T09:28:15;102972.28;;;9.21;100.00
11114;BME280;5610;52.154;9.198;2023-02-13T09:31:04;102973.38;;;9.11;100.00
11114;BME280;5610;52.154;9.198;2023-02-13T09:33:50;102976.41;;;9.37;100.00
11114;BME280;5610;52.154;9.198;2023-02-13T09:36:35;102971.81;;;9.47;100.00
11114;BME280;5610;52.154;9.198;2023-02-13T09:39:20;102973.66;;;9.42;100.00
11114;BME280;5610;52.154;9.198;2023-02-13T09:42:16;102968.50;;;9.34;100.00
11114;BME280;5610;52.154;9.198;2023-02-13T09:45:05;102973.75;;;9.37;100.00
11114;BME280;5610;52.154;9.198;2023-02-13T09:47:51;102975.19;;;9.55;100.00
11114;BME280;5610;52.154;9.198;2023-02-13T09:50:37;102969.84;;;9.55;100.00
11114;BME280;5610;52.154;9.198;2023-02-13T09:53:23;102974.78;;;9.75;100.00
11114;BME280;5610;52.154;9.198;2023-02-13T09:56:15;102980.19;;;9.70;100.00
11114;BME280;5610;52.154;9.198;2023-02-13T09:59:06;102979.00;;;9.85;100.00
11114;BME280;5610;52.154;9.198;2023-02-13T10:01:56;102984.97;;;9.96;100.00
11114;BME280;5610;52.154;9.198;2023-02-13T10:04:48;102975.09;;;10.01;100.00
11114;BME280;5610;52.154;9.198;2023-02-13T10:07:42;102985.75;;;10.01;100.00
11114;BME280;5610;52.154;9.198;2023-02-13T10:10:40;102983.66;;;10.15;100.00
11114;BME280;5610;52.154;9.198;2023-02-13T10:13:41;102983.47;;;10.25;100.00
11114;BME280;5610;52.154;9.198;2023-02-13T10:16:34;102982.53;;;10.27;100.00
11114;BME280;5610;52.154;9.198;2023-02-13T10:19:30;102982.47;;;10.30;100.00
11114;BME280;5610;52.154;9.198;2023-02-13T10:22:19;102977.88;;;10.37;100.00
11114;BME280;5610;52.154;9.198;2023-02-13T10:25:11;102981.59;;;10.67;100.00
11114;BME280;5610;52.154;9.198;2023-02-13T10:28:04;102979.44;;;10.45;100.00
11114;BME280;5610;52.154;9.198;2023-02-13T10:30:54;102976.78;;;10.81;100.00
11114;BME280;5610;52.154;9.198;2023-02-13T10:33:46;102982.13;;;10.81;100.00
11114;BME280;5610;52.154;9.198;2023-02-13T10:36:36;102978.34;;;10.90;100.00
11114;BME280;5610;52.154;9.198;2023-02-13T10:39:27;102976.50;;;10.92;100.00
11114;BME280;5610;52.154;9.198;2023-02-13T10:42:19;102984.03;;;11.10;100.00
11114;BME280;5610;52.154;9.198;2023-02-13T10:45:21;102987.72;;;11.05;100.00
11114;BME280;5610;52.154;9.198;2023-02-13T10:48:21;102978.28;;;10.91;100.00
11114;BME280;5610;52.154;9.198;2023-02-13T10:51:16;102978.94;;;11.01;100.00
11114;BME280;5610;52.154;9.198;2023-02-13T10:54:27;102975.72;;;11.22;100.00
11114;BME280;5610;52.154;9.198;2023-02-13T10:57:18;102968.84;;;11.45;100.00
11114;BME280;5610;52.154;9.198;2023-02-13T11:00:11;102974.97;;;11.48;100.00
11114;BME280;5610;52.154;9.198;2023-02-13T11:03:00;102962.53;;;11.47;100.00
11114;BME280;5610;52.154;9.198;2023-02-13T11:05:46;102969.28;;;11.61;100.00
11114;BME280;5610;52.154;9.198;2023-02-13T11:08:34;102967.94;;;11.77;100.00
11114;BME280;5610;52.154;9.198;2023-02-13T11:11:32;102957.41;;;12.02;100.00
11114;BME280;5610;52.154;9.198;2023-02-13T11:14:20;102954.38;;;12.14;100.00
11114;BME280;5610;52.154;9.198;2023-02-13T11:17:06;102956.78;;;12.22;100.00
11114;BME280;5610;52.154;9.198;2023-02-13T11:19:58;102949.84;;;12.16;100.00
11114;BME280;5610;52.154;9.198;2023-02-13T11:22:45;102943.13;;;12.31;100.00
11114;BME280;5610;52.154;9.198;2023-02-13T11:25:30;102943.72;;;12.41;100.00
11114;BME280;5610;52.154;9.198;2023-02-13T11:28:19;102940.63;;;12.25;100.00
11114;BME280;5610;52.154;9.198;2023-02-13T11:31:10;102939.16;;;12.16;100.00
11114;BME280;5610;52.154;9.198;2023-02-13T11:33:57;102946.03;;;12.23;100.00
11114;BME280;5610;52.154;9.198;2023-02-13T11:36:44;102941.06;;;12.11;100.00
11114;BME280;5610;52.154;9.198;2023-02-13T11:39:29;102939.34;;;12.10;100.00
11114;BME280;5610;52.154;9.198;2023-02-13T11:42:15;102947.88;;;11.93;100.00
11114;BME280;5610;52.154;9.198;2023-02-13T11:45:05;102943.31;;;11.97;100.00
11114;BME280;5610;52.154;9.198;2023-02-13T11:47:53;102943.59;;;11.57;100.00
11114;BME280;5610;52.154;9.198;2023-02-13T11:50:39;102949.78;;;11.59;100.00
11114;BME280;5610;52.154;9.198;2023-02-13T11:53:28;102943.16;;;11.72;100.00
11114;BME280;5610;52.154;9.198;2023-02-13T11:56:14;102938.06;;;11.63;100.00
11114;BME280;5610;52.154;9.198;2023-02-13T11:59:01;102939.19;;;11.87;100.00
11114;BME280;5610;52.154;9.198;2023-02-13T12:02:00;102936.25;;;11.94;100.00
11114;BME280;5610;52.154;9.198;2023-02-13T12:04:48;102929.25;;;11.90;100.00
11114;BME280;5610;52.154;9.198;2023-02-13T12:07:34;102929.56;;;12.09;100.00
11114;BME280;5610;52.154;9.198;2023-02-13T12:10:21;102917.63;;;12.21;100.00
11114;BME280;5610;52.154;9.198;2023-02-13T12:13:14;102922.72;;;12.28;100.00
11114;BME280;5610;52.154;9.198;2023-02-13T12:16:10;102917.88;;;12.40;100.00
11114;BME280;5610;52.154;9.198;2023-02-13T12:18:59;102915.69;;;12.52;100.00
11114;BME280;5610;52.154;9.198;2023-02-13T12:21:55;102910.19;;;12.57;100.00
11114;BME280;5610;52.154;9.198;2023-02-13T12:24:54;102915.88;;;12.46;100.00
11114;BME280;5610;52.154;9.198;2023-02-13T12:27:51;102917.06;;;12.37;100.00
11114;BME280;5610;52.154;9.198;2023-02-13T12:31:06;102907.97;;;12.43;100.00
11114;BME280;5610;52.154;9.198;2023-02-13T12:34:14;102914.50;;;12.34;100.00
11114;BME280;5610;52.154;9.198;2023-02-13T12:37:17;102910.97;;;12.34;100.00
11114;BME280;5610;52.154;9.198;2023-02-13T12:40:19;102897.09;;;12.21;100.00
11114;BME280;5610;52.154;9.198;2023-02-13T12:43:21;102894.38;;;12.23;100.00
11114;BME280;5610;52.154;9.198;2023-02-13T12:46:14;102897.06;;;11.65;100.00
11114;BME280;5610;52.154;9.198;2023-02-13T12:49:15;102886.31;;;11.96;100.00
11114;BME280;5610;52.154;9.198;2023-02-13T12:52:16;102875.31;;;12.07;100.00
11114;BME280;5610;52.154;9.198;2023-02-13T12:55:18;102875.81;;;12.18;100.00
11114;BME280;5610;52.154;9.198;2023-02-13T12:58:17;102872.25;;;12.19;100.00
11114;BME280;5610;52.154;9.198;2023-02-13T13:01:15;102867.13;;;12.12;100.00
11114;BME280;5610;52.154;9.198;2023-02-13T13:04:11;102865.75;;;12.26;100.00
11114;BME280;5610;52.154;9.198;2023-02-13T13:07:15;102868.72;;;12.44;100.00
11114;BME280;5610;52.154;9.198;2023-02-13T13:10:18;102875.88;;;12.17;100.00
11114;BME280;5610;52.154;9.198;2023-02-13T13:13:17;102865.84;;;12.23;100.00
11114;BME280;5610;52.154;9.198;2023-02-13T13:16:12;102865.53;;;12.32;100.00
11114;BME280;5610;52.154;9.198;2023-02-13T13:19:10;102864.75;;;12.02;100.00
11114;BME280;5610;52.154;9.198;2023-02-13T13:22:01;102854.31;;;11.95;100.00
11114;BME280;5610;52.154;9.198;2023-02-13T13:24:55;102853.69;;;11.87;100.00
11114;BME280;5610;52.154;9.198;2023-02-13T13:27:45;102851.50;;;11.99;100.00
11114;BME280;5610;52.154;9.198;2023-02-13T13:30:33;102852.75;;;12.16;100.00
11114;BME280;5610;52.154;9.198;2023-02-13T13:33:21;102848.34;;;12.41;100.00
11114;BME280;5610;52.154;9.198;2023-02-13T13:36:13;102850.41;;;12.31;100.00
11114;BME280;5610;52.154;9.198;2023-02-13T13:39:04;102848.25;;;12.16;100.00
11114;BME280;5610;52.154;9.198;2023-02-13T13:41:53;102851.34;;;12.30;100.00
11114;BME280;5610;52.154;9.198;2023-02-13T13:45:07;102834.97;;;12.41;100.00
11114;BME280;5610;52.154;9.198;2023-02-13T13:48:22;102832.50;;;12.35;100.00
11114;BME280;5610;52.154;9.198;2023-02-13T13:51:15;102833.00;;;12.71;100.00
11114;BME280;5610;52.154;9.198;2023-02-13T13:54:31;102824.56;;;12.83;99.88
11114;BME280;5610;52.154;9.198;2023-02-13T13:57:19;102823.63;;;13.33;97.59
11114;BME280;5610;52.154;9.198;2023-02-13T14:00:23;102824.31;;;13.60;92.26
11114;BME280;5610;52.154;9.198;2023-02-13T14:03:21;102833.00;;;13.88;88.74
11114;BME280;5610;52.154;9.198;2023-02-13T14:06:09;102826.84;;;13.86;86.95
11114;BME280;5610;52.154;9.198;2023-02-13T14:08:59;102831.88;;;13.50;85.73
11114;BME280;5610;52.154;9.198;2023-02-13T14:11:44;102825.47;;;13.76;89.20
11114;BME280;5610;52.154;9.198;2023-02-13T14:14:48;102819.88;;;13.60;83.53
11114;BME280;5610;52.154;9.198;2023-02-13T14:17:52;102816.91;;;12.96;86.09
11114;BME280;5610;52.154;9.198;2023-02-13T14:20:40;102807.78;;;13.27;87.03
11114;BME280;5610;52.154;9.198;2023-02-13T14:23:34;102811.94;;;13.57;83.42
11114;BME280;5610;52.154;9.198;2023-02-13T14:26:33;102808.31;;;13.58;84.03
11114;BME280;5610;52.154;9.198;2023-02-13T14:29:27;102808.53;;;16.47;75.74
11114;BME280;5610;52.154;9.198;2023-02-13T14:32:17;102807.09;;;20.18;53.83
11114;BME280;5610;52.154;9.198;2023-02-13T14:35:06;102794.31;;;19.52;54.73
11114;BME280;5610;52.154;9.198;2023-02-13T14:38:02;102801.66;;;18.64;56.35
11114;BME280;5610;52.154;9.198;2023-02-13T14:40:51;102805.09;;;17.28;58.40
11114;BME280;5610;52.154;9.198;2023-02-13T14:43:48;102810.03;;;16.87;60.16
11114;BME280;5610;52.154;9.198;2023-02-13T14:46:38;102792.25;;;16.50;61.45
11114;BME280;5610;52.154;9.198;2023-02-13T14:49:26;102797.50;;;15.63;63.45
11114;BME280;5610;52.154;9.198;2023-02-13T14:52:16;102796.13;;;15.36;66.83
11114;BME280;5610;52.154;9.198;2023-02-13T14:55:05;102794.59;;;15.11;69.28
11114;BME280;5610;52.154;9.198;2023-02-13T14:58:03;102798.81;;;14.57;71.84
11114;BME280;5610;52.154;9.198;2023-02-13T15:00:55;102807.66;;;13.97;75.94
11114;BME280;5610;52.154;9.198;2023-02-13T15:03:45;102803.41;;;13.69;79.00